createdAt,value
2022-09-01T00:00:01.991Z,102546.16
2022-09-01T00:02:35.205Z,102545.56
2022-09-01T00:05:07.507Z,102545.19
2022-09-01T00:07:36.831Z,102549.66
2022-09-01T00:10:08.089Z,102551.75
2022-09-01T00:12:38.660Z,102549.75
2022-09-01T00:15:10.915Z,102555.28
2022-09-01T00:17:40.074Z,102557.78
2022-09-01T00:20:10.087Z,102553.91
2022-09-01T00:22:38.853Z,102560.69
2022-09-01T00:25:09.837Z,102553.91
2022-09-01T00:27:39.824Z,102564.81
2022-09-01T00:30:09.727Z,102562.88
2022-09-01T00:32:38.324Z,102568.09
2022-09-01T00:35:08.783Z,102566.94
2022-09-01T00:37:37.384Z,102576.53
2022-09-01T00:40:07.104Z,102569.41
2022-09-01T00:42:35.674Z,102574.16
2022-09-01T00:45:07.015Z,102578.09
2022-09-01T00:47:37.861Z,102569.75
2022-09-01T00:50:08.529Z,102571.84
2022-09-01T00:52:42.251Z,102566.91
2022-09-01T00:55:14.453Z,102573.69
2022-09-01T00:57:43.843Z,102570.44
2022-09-01T01:00:17.861Z,102569.19
2022-09-01T01:02:46.948Z,102573.22
2022-09-01T01:05:16.641Z,102570.03
2022-09-01T01:07:47.771Z,102577.94
2022-09-01T01:10:19.617Z,102574.78
2022-09-01T01:12:49.822Z,102571.56
2022-09-01T01:15:20.507Z,102571.66
2022-09-01T01:17:49.020Z,102572.50
2022-09-01T01:20:38.254Z,102576.59
2022-09-01T01:23:15.904Z,102581.00
2022-09-01T01:25:48.892Z,102571.38
2022-09-01T01:28:22.217Z,102576.59
2022-09-01T01:30:57.816Z,102582.66
2022-09-01T01:33:30.934Z,102585.50
2022-09-01T01:36:00.018Z,102592.03
2022-09-01T01:38:31.257Z,102602.44
2022-09-01T01:41:02.523Z,102596.09
2022-09-01T01:43:31.335Z,102606.91
2022-09-01T01:46:02.625Z,102608.13
2022-09-01T01:48:39.459Z,102614.88
2022-09-01T01:51:08.513Z,102614.47
2022-09-01T01:53:37.685Z,102620.94
2022-09-01T01:56:11.074Z,102625.72
2022-09-01T01:58:40.606Z,102627.34
2022-09-01T02:01:13.269Z,102626.59
2022-09-01T02:03:42.190Z,102632.16
2022-09-01T02:06:12.236Z,102635.84
2022-09-01T02:08:42.197Z,102642.63
2022-09-01T02:11:13.218Z,102644.25
2022-09-01T02:13:41.802Z,102650.66
2022-09-01T02:16:12.972Z,102653.03
2022-09-01T02:18:48.059Z,102650.28
2022-09-01T02:21:20.546Z,102653.13
2022-09-01T02:23:55.811Z,102655.97
2022-09-01T02:26:32.191Z,102656.38
2022-09-01T02:29:04.704Z,102668.03
2022-09-01T02:31:35.708Z,102667.25
2022-09-01T02:34:04.871Z,102671.69
2022-09-01T02:36:35.170Z,102676.50
2022-09-01T02:39:04.797Z,102682.91
2022-09-01T02:41:38.139Z,102688.53
2022-09-01T02:44:11.682Z,102688.53
2022-09-01T02:46:43.011Z,102690.94
2022-09-01T02:49:15.329Z,102685.75
2022-09-01T02:51:44.753Z,102676.91
2022-09-01T02:54:19.133Z,102678.19
2022-09-01T02:56:49.902Z,102678.53
2022-09-01T02:59:21.828Z,102668.56
2022-09-01T03:01:53.888Z,102678.22
2022-09-01T03:04:24.212Z,102685.78
2022-09-01T03:06:55.164Z,102689.44
2022-09-01T03:09:24.447Z,102689.09
2022-09-01T03:11:55.748Z,102705.47
2022-09-01T03:14:26.755Z,102704.72
2022-09-01T03:16:55.940Z,102715.91
2022-09-01T03:19:24.591Z,102716.66
2022-09-01T03:21:53.223Z,102724.66
2022-09-01T03:24:25.176Z,102721.94
2022-09-01T03:26:56.586Z,102727.53
2022-09-01T03:29:25.897Z,102731.50
2022-09-01T03:31:54.975Z,102731.91
2022-09-01T03:34:24.077Z,102730.38
2022-09-01T03:36:56.389Z,102734.41
2022-09-01T03:39:29.733Z,102737.19
2022-09-01T03:42:01.164Z,102747.59
2022-09-01T03:44:29.733Z,102745.56
2022-09-01T03:47:01.385Z,102742.41
2022-09-01T03:49:31.259Z,102754.41
2022-09-01T03:52:00.379Z,102756.03
2022-09-01T03:54:30.406Z,102766.41
2022-09-01T03:57:00.659Z,102762.81
2022-09-01T03:59:30.916Z,102764.03
2022-09-01T04:02:00.419Z,102768.81
2022-09-01T04:04:31.491Z,102769.66
2022-09-01T04:07:01.180Z,102769.22
2022-09-01T04:09:30.957Z,102780.03
2022-09-01T04:12:00.916Z,102783.25
2022-09-01T04:14:30.670Z,102789.66
2022-09-01T04:17:16.846Z,102797.63
2022-09-01T04:19:45.757Z,102811.22
2022-09-01T04:22:15.610Z,102820.41
2022-09-01T04:24:46.759Z,102826.41
2022-09-01T04:27:18.535Z,102831.59
2022-09-01T04:29:48.467Z,102840.81
2022-09-01T04:32:17.218Z,102846.41
2022-09-01T04:34:51.732Z,102857.19
2022-09-01T04:37:23.616Z,102855.16
2022-09-01T04:39:57.385Z,102858.34
2022-09-01T04:42:32.521Z,102863.53
2022-09-01T04:45:10.549Z,102861.56
2022-09-01T04:47:43.159Z,102864.75
2022-09-01T04:50:17.559Z,102866.34
2022-09-01T04:53:07.216Z,102872.72
2022-09-01T04:55:43.908Z,102874.72
2022-09-01T04:58:17.772Z,102884.31
2022-09-01T05:00:49.661Z,102886.28
2022-09-01T05:03:21.630Z,102895.09
2022-09-01T05:06:01.219Z,102898.28
2022-09-01T05:08:35.309Z,102900.25
2022-09-01T05:11:09.164Z,102896.28
2022-09-01T05:13:43.334Z,102895.88
2022-09-01T05:16:15.842Z,102891.47
2022-09-01T05:18:49.022Z,102897.88
2022-09-01T05:21:22.249Z,102900.25
2022-09-01T05:23:51.818Z,102897.88
2022-09-01T05:26:23.844Z,102895.88
2022-09-01T05:28:55.390Z,102893.47
2022-09-01T05:31:25.532Z,102896.66
2022-09-01T05:33:54.064Z,102893.47
2022-09-01T05:36:25.031Z,102887.88
2022-09-01T05:38:55.245Z,102886.28
2022-09-01T05:41:24.541Z,102898.25
2022-09-01T05:44:00.070Z,102891.84
2022-09-01T05:46:30.105Z,102886.22
2022-09-01T05:49:00.228Z,102881.03
2022-09-01T05:51:44.245Z,102873.81
2022-09-01T05:54:15.177Z,102875.41
2022-09-01T05:56:45.042Z,102875.00
2022-09-01T05:59:24.698Z,102878.91
2022-09-01T06:01:57.703Z,102867.69
2022-09-01T06:04:27.842Z,102867.22
2022-09-01T06:07:05.826Z,102846.72
2022-09-01T06:09:39.741Z,102836.56
2022-09-01T06:12:09.266Z,102812.84
2022-09-01T06:14:39.289Z,102797.44
2022-09-01T06:17:10.193Z,102786.53
2022-09-01T06:19:39.990Z,102772.31
2022-09-01T06:22:10.728Z,102757.69
2022-09-01T06:24:40.066Z,102736.25
2022-09-01T06:27:10.201Z,102734.78
2022-09-01T06:29:40.974Z,102712.19
2022-09-01T06:32:12.533Z,102710.72
2022-09-01T06:34:43.579Z,102687.66
2022-09-01T06:37:14.020Z,102692.00
2022-09-01T06:39:45.802Z,102689.94
2022-09-01T06:42:15.685Z,102684.19
2022-09-01T06:45:00.101Z,102682.47
2022-09-01T06:47:29.763Z,102688.75
2022-09-01T06:49:59.032Z,102680.66
2022-09-01T06:53:31.558Z,102691.06
2022-09-01T06:55:18.433Z,102684.97
2022-09-01T06:58:07.715Z,102688.78
2022-09-01T07:00:42.327Z,102680.28
2022-09-01T07:03:14.532Z,102671.63
2022-09-01T07:09:25.877Z,102670.34
2022-09-01T07:12:27.840Z,102655.50
2022-09-01T07:17:52.138Z,102625.88
2022-09-01T07:20:25.153Z,102622.16
2022-09-01T07:23:03.931Z,102599.59
2022-09-01T07:26:01.090Z,102592.53
2022-09-01T07:28:42.206Z,102563.78
2022-09-01T07:34:39.973Z,102539.22
2022-09-01T07:39:57.970Z,102667.16
2022-09-01T07:46:36.294Z,102498.03
2022-09-01T07:51:39.244Z,102485.97
2022-09-01T07:54:08.915Z,102476.72
2022-09-01T07:56:40.319Z,102473.00
2022-09-01T07:59:14.807Z,102471.16
2022-09-01T08:02:18.399Z,102463.72
2022-09-01T08:04:49.019Z,102450.94
2022-09-01T08:07:20.580Z,102456.34
2022-09-01T08:09:49.168Z,102445.59
2022-09-01T08:12:18.177Z,102444.47
2022-09-01T08:15:12.654Z,102429.84
2022-09-01T08:17:57.845Z,102414.88
2022-09-01T08:20:30.370Z,102405.00
2022-09-01T08:23:19.792Z,102412.28
2022-09-01T08:25:50.710Z,102404.69
2022-09-01T08:28:26.514Z,102407.56
2022-09-01T08:30:56.270Z,102398.38
2022-09-01T08:33:26.134Z,102397.94
2022-09-01T08:35:55.360Z,102394.41
2022-09-01T08:38:25.785Z,102392.38
2022-09-01T08:40:57.621Z,102386.59
2022-09-01T08:43:54.340Z,102388.34
2022-09-01T08:46:27.710Z,102394.97
2022-09-01T08:52:15.211Z,102390.25
2022-09-01T08:54:49.340Z,102386.66
2022-09-01T08:57:23.165Z,102390.97
2022-09-01T09:00:15.549Z,102388.22
2022-09-01T09:02:56.942Z,102388.22
2022-09-01T09:05:34.575Z,102390.38
2022-09-01T09:08:33.344Z,102377.66
2022-09-01T09:11:08.218Z,102380.03
2022-09-01T09:13:50.417Z,102381.28
2022-09-01T09:16:24.839Z,102373.41
2022-09-01T09:18:58.218Z,102376.53
2022-09-01T09:21:30.876Z,102366.75
2022-09-01T09:24:07.836Z,102367.22
2022-09-01T09:26:45.038Z,102370.19
2022-09-01T09:29:13.559Z,102370.44
2022-09-01T09:31:50.001Z,102364.59
2022-09-01T09:34:34.428Z,102364.88
2022-09-01T09:37:18.912Z,102356.50
2022-09-01T09:40:09.905Z,102354.56
2022-09-01T09:42:42.263Z,102352.19
2022-09-01T09:45:24.691Z,102351.66
2022-09-01T09:47:55.235Z,102356.75
2022-09-01T09:50:29.528Z,102347.03
2022-09-01T09:53:16.222Z,102346.19
2022-09-01T09:56:00.619Z,102335.00
2022-09-01T09:58:37.332Z,102324.84
2022-09-01T10:01:14.680Z,102327.91
2022-09-01T10:03:45.820Z,102325.66
2022-09-01T10:06:31.572Z,102327.28
2022-09-01T10:09:02.392Z,102320.75
2022-09-01T10:11:41.661Z,102307.59
2022-09-01T10:14:35.273Z,102306.88
2022-09-01T10:17:13.300Z,102313.34
2022-09-01T10:19:51.098Z,102323.13
2022-09-01T10:22:20.623Z,102311.13
2022-09-01T10:24:50.356Z,102329.59
2022-09-01T10:27:23.011Z,102319.72
2022-09-01T10:30:14.520Z,102306.50
2022-09-01T10:32:54.922Z,102311.09
2022-09-01T10:35:27.637Z,102310.44
2022-09-01T10:37:59.420Z,102323.38
2022-09-01T10:40:49.220Z,102313.19
2022-09-01T10:43:28.514Z,102306.69
2022-09-01T10:46:05.314Z,102304.09
2022-09-01T10:48:48.170Z,102310.38
2022-09-01T10:51:51.516Z,102300.66
2022-09-01T10:55:01.499Z,102305.34
2022-09-01T10:57:55.847Z,102289.25
2022-09-01T11:03:53.853Z,102288.06
2022-09-01T11:07:13.590Z,102286.69
2022-09-01T11:09:43.955Z,102299.59
2022-09-01T11:12:41.964Z,102282.09
2022-09-01T11:15:39.277Z,102278.38
2022-09-01T11:18:17.494Z,102283.09
2022-09-01T11:20:48.918Z,102274.38
2022-09-01T11:23:25.372Z,102273.88
2022-09-01T11:28:44.129Z,102269.22
2022-09-01T11:31:23.312Z,102277.13
2022-09-01T11:34:00.766Z,102268.72
2022-09-01T11:36:34.787Z,102268.47
2022-09-01T11:39:17.528Z,102261.53
2022-09-01T11:41:57.408Z,102261.97
2022-09-01T11:44:42.545Z,102264.09
2022-09-01T11:47:16.581Z,102274.94
2022-09-01T11:49:52.200Z,102258.56
2022-09-01T11:52:25.158Z,102270.50
2022-09-01T11:54:54.308Z,102268.72
2022-09-01T11:57:26.502Z,102261.81
2022-09-01T11:59:55.937Z,102256.78
2022-09-01T12:02:27.060Z,102246.72
2022-09-01T12:04:57.018Z,102243.28
2022-09-01T12:07:38.854Z,102246.13
2022-09-01T12:10:18.467Z,102239.56
2022-09-01T12:12:48.119Z,102237.69
2022-09-01T12:15:22.107Z,102240.50
2022-09-01T12:17:50.922Z,102234.34
2022-09-01T12:20:29.690Z,102235.78
2022-09-01T12:23:02.337Z,102240.19
2022-09-01T12:25:33.253Z,102237.84
2022-09-01T12:28:02.897Z,102228.63
2022-09-01T12:30:35.281Z,102225.81
2022-09-01T12:36:23.357Z,102244.66
2022-09-01T12:38:55.146Z,102245.88
2022-09-01T12:41:32.494Z,102241.38
2022-09-01T12:44:30.535Z,102237.66
2022-09-01T12:47:00.821Z,102222.19
2022-09-01T12:49:37.404Z,102224.00
2022-09-01T12:52:25.976Z,102221.06
2022-09-01T12:55:47.429Z,102220.94
2022-09-01T12:58:06.850Z,102229.63
2022-09-01T13:00:37.381Z,102230.50
2022-09-01T13:03:14.201Z,102241.09
2022-09-01T13:05:43.480Z,102230.19
2022-09-01T13:08:14.488Z,102221.47
2022-09-01T13:10:46.450Z,102217.03
2022-09-01T13:13:15.891Z,102215.97
2022-09-01T13:15:48.222Z,102207.34
2022-09-01T13:18:17.229Z,102203.03
2022-09-01T13:20:45.798Z,102214.19
2022-09-01T13:23:14.464Z,102220.00
2022-09-01T13:25:46.631Z,102221.34
2022-09-01T13:28:17.075Z,102228.91
2022-09-01T13:30:48.697Z,102221.31
2022-09-01T13:33:19.899Z,102216.38
2022-09-01T13:35:49.462Z,102222.59
2022-09-01T13:38:18.544Z,102210.88
2022-09-01T13:40:50.232Z,102217.31
2022-09-01T13:43:22.271Z,102206.69
2022-09-01T13:45:51.821Z,102208.75
2022-09-01T13:48:22.308Z,102208.31
2022-09-01T13:53:41.768Z,102193.19
2022-09-01T13:56:11.671Z,102183.50
2022-09-01T13:58:41.053Z,102168.16
2022-09-01T14:01:09.571Z,102168.09
2022-09-01T14:03:38.175Z,102165.44
2022-09-01T14:06:07.863Z,102173.56
2022-09-01T14:08:36.340Z,102169.66
2022-09-01T14:11:04.931Z,102175.97
2022-09-01T14:13:35.471Z,102165.81
2022-09-01T14:16:10.733Z,102152.09
2022-09-01T14:18:39.659Z,102156.28
2022-09-01T14:21:12.875Z,102149.41
2022-09-01T14:23:41.595Z,102145.25
2022-09-01T14:26:12.590Z,102157.81
2022-09-01T14:28:45.579Z,102147.97
2022-09-01T14:31:15.341Z,102155.72
2022-09-01T14:33:45.112Z,102160.00
2022-09-01T14:36:20.313Z,102153.84
2022-09-01T14:38:50.175Z,102154.03
2022-09-01T14:41:23.227Z,102141.56
2022-09-01T14:43:54.449Z,102140.50
2022-09-01T14:46:23.374Z,102134.63
2022-09-01T14:48:52.052Z,102131.53
2022-09-01T14:51:23.736Z,102128.25
2022-09-01T14:53:52.963Z,102125.66
2022-09-01T14:56:22.541Z,102114.63
2022-09-01T14:58:58.781Z,102117.59
2022-09-01T15:01:34.764Z,102099.00
2022-09-01T15:04:04.216Z,102104.47
2022-09-01T15:06:33.883Z,102116.88
2022-09-01T15:09:03.621Z,102121.53
2022-09-01T15:11:32.164Z,102114.03
2022-09-01T15:14:06.001Z,102121.22
2022-09-01T15:16:39.549Z,102126.69
2022-09-01T15:19:09.873Z,102124.13
2022-09-01T15:21:40.222Z,102134.63
2022-09-01T15:24:10.221Z,102127.66
2022-09-01T15:26:40.743Z,102110.59
2022-09-01T15:29:11.930Z,102108.88
2022-09-01T15:31:41.285Z,102092.41
2022-09-01T15:34:10.196Z,102094.63
2022-09-01T15:36:41.029Z,102079.25
2022-09-01T15:39:10.750Z,102076.06
2022-09-01T15:41:40.647Z,102081.16
2022-09-01T15:44:11.210Z,102090.22
2022-09-01T15:46:41.299Z,102082.16
2022-09-01T15:49:11.552Z,102086.00
2022-09-01T15:51:41.278Z,102079.38
2022-09-01T15:54:15.076Z,102088.00
2022-09-01T15:56:44.651Z,102074.47
2022-09-01T15:59:15.756Z,102078.56
2022-09-01T16:01:47.131Z,102076.16
2022-09-01T16:04:20.837Z,102078.56
2022-09-01T16:06:50.957Z,102080.91
2022-09-01T16:09:20.977Z,102079.47
2022-09-01T16:11:49.860Z,102080.97
2022-09-01T16:14:22.832Z,102079.84
2022-09-01T16:17:02.277Z,102077.59
2022-09-01T16:19:38.599Z,102080.56
2022-09-01T16:22:14.309Z,102079.56
2022-09-01T16:24:44.673Z,102076.22
2022-09-01T16:27:16.886Z,102083.06
2022-09-01T16:29:49.877Z,102072.44
2022-09-01T16:32:21.318Z,102074.06
2022-09-01T16:34:51.173Z,102074.53
2022-09-01T16:37:36.495Z,102068.69
2022-09-01T16:40:17.587Z,102063.44
2022-09-01T16:42:51.324Z,102064.63
2022-09-01T16:45:43.038Z,102055.00
2022-09-01T16:48:20.484Z,102053.69
2022-09-01T16:50:55.877Z,102051.34
2022-09-01T16:53:51.062Z,102056.13
2022-09-01T16:56:26.285Z,102054.41
2022-09-01T16:59:03.375Z,102057.75
2022-09-01T17:01:45.352Z,102055.41
2022-09-01T17:04:28.134Z,102047.97
2022-09-01T17:07:03.438Z,102054.84
2022-09-01T17:09:36.647Z,102050.69
2022-09-01T17:12:30.501Z,102057.22
2022-09-01T17:15:09.045Z,102055.56
2022-09-01T17:17:45.556Z,102051.47
2022-09-01T17:20:16.271Z,102055.00
2022-09-01T17:22:51.875Z,102049.06
2022-09-01T17:25:31.105Z,102069.50
2022-09-01T17:28:03.613Z,102056.78
2022-09-01T17:30:36.128Z,102056.38
2022-09-01T17:33:19.654Z,102067.94
2022-09-01T17:36:02.953Z,102068.09
2022-09-01T17:38:54.218Z,102063.66
2022-09-01T17:41:34.328Z,102073.06
2022-09-01T17:44:15.857Z,102070.84
2022-09-01T17:46:50.202Z,102069.13
2022-09-01T17:49:23.909Z,102076.53
2022-09-01T17:52:01.633Z,102072.34
2022-09-01T17:54:40.489Z,102078.44
2022-09-01T17:57:16.738Z,102083.06
2022-09-01T17:59:50.457Z,102086.75
2022-09-01T18:02:38.209Z,102082.44
2022-09-01T18:05:13.059Z,102088.22
2022-09-01T18:08:01.177Z,102086.84
2022-09-01T18:10:35.374Z,102088.59
2022-09-01T18:13:06.165Z,102089.63
2022-09-01T18:15:44.202Z,102092.78
2022-09-01T18:18:28.383Z,102097.28
2022-09-01T18:21:04.504Z,102090.63
2022-09-01T18:23:38.455Z,102098.78
2022-09-01T18:26:15.686Z,102095.97
2022-09-01T18:28:44.301Z,102093.31
2022-09-01T18:31:23.975Z,102096.91
2022-09-01T18:34:04.684Z,102105.66
2022-09-01T18:36:44.509Z,102112.53
2022-09-01T18:39:20.950Z,102116.72
2022-09-01T18:42:04.430Z,102111.06
2022-09-01T18:44:45.030Z,102110.19
2022-09-01T18:47:15.412Z,102117.34
2022-09-01T18:49:55.935Z,102113.00
2022-09-01T18:52:44.468Z,102121.56
2022-09-01T18:55:22.180Z,102119.13
2022-09-01T18:57:54.502Z,102119.53
2022-09-01T19:00:30.659Z,102124.09
2022-09-01T19:03:17.503Z,102122.06
2022-09-01T19:05:59.748Z,102118.56
2022-09-01T19:08:48.281Z,102113.56
2022-09-01T19:11:27.911Z,102125.09
2022-09-01T19:14:07.459Z,102122.09
2022-09-01T19:16:50.336Z,102119.28
2022-09-01T19:19:33.099Z,102123.34
2022-09-01T19:22:01.939Z,102125.09
2022-09-01T19:24:37.647Z,102124.50
2022-09-01T19:27:11.384Z,102127.16
2022-09-01T19:29:48.054Z,102124.50
2022-09-01T19:32:20.839Z,102122.75
2022-09-01T19:34:54.427Z,102128.88
2022-09-01T19:37:23.464Z,102138.28
2022-09-01T19:39:54.617Z,102128.69
2022-09-01T19:42:27.769Z,102126.81
2022-09-01T19:45:06.818Z,102134.31
2022-09-01T19:47:43.009Z,102134.59
2022-09-01T19:50:19.957Z,102144.00
2022-09-01T19:52:56.877Z,102132.56
2022-09-01T19:55:32.014Z,102133.75
2022-09-01T19:58:04.445Z,102139.25
2022-09-01T20:00:50.773Z,102142.69
2022-09-01T20:03:26.329Z,102139.06
2022-09-01T20:05:58.295Z,102142.03
2022-09-01T20:08:34.720Z,102143.53
2022-09-01T20:11:11.921Z,102148.34
2022-09-01T20:13:58.831Z,102145.00
2022-09-01T20:16:32.717Z,102150.31
2022-09-01T20:19:10.446Z,102150.47
2022-09-01T20:21:43.324Z,102150.44
2022-09-01T20:24:19.000Z,102155.28
2022-09-01T20:26:58.393Z,102154.63
2022-09-01T20:29:33.272Z,102156.47
2022-09-01T20:32:04.167Z,102154.25
2022-09-01T20:34:39.187Z,102160.03
2022-09-01T20:37:19.286Z,102153.41
2022-09-01T20:40:00.327Z,102166.19
2022-09-01T20:42:41.932Z,102155.97
2022-09-01T20:45:14.643Z,102159.50
2022-09-01T20:47:50.356Z,102166.59
2022-09-01T20:50:20.663Z,102162.13
2022-09-01T20:53:00.771Z,102162.91
2022-09-01T20:55:37.463Z,102166.44
2022-09-01T20:58:12.164Z,102171.97
2022-09-01T21:00:47.068Z,102178.84
2022-09-01T21:03:33.817Z,102176.25
2022-09-01T21:06:10.073Z,102178.56
2022-09-01T21:08:48.868Z,102174.28
2022-09-01T21:11:34.981Z,102177.66
2022-09-01T21:14:15.816Z,102182.31
2022-09-01T21:16:57.524Z,102182.88
2022-09-01T21:19:34.392Z,102184.91
2022-09-01T21:22:07.083Z,102180.75
2022-09-01T21:24:36.199Z,102176.47
2022-09-01T21:27:09.412Z,102179.19
2022-09-01T21:29:53.459Z,102177.84
2022-09-01T21:32:22.905Z,102179.22
2022-09-01T21:34:53.208Z,102179.53
2022-09-01T21:37:23.742Z,102175.25
2022-09-01T21:39:54.161Z,102169.63
2022-09-01T21:42:25.237Z,102165.34
2022-09-01T21:44:58.306Z,102175.81
2022-09-01T21:47:28.033Z,102174.47
2022-09-01T21:49:57.332Z,102163.44
2022-09-01T21:52:26.022Z,102171.78
2022-09-01T21:54:54.759Z,102169.94
2022-09-01T21:57:23.487Z,102168.47
2022-09-01T21:59:52.618Z,102169.69
2022-09-01T22:02:28.285Z,102171.94
2022-09-01T22:04:57.424Z,102169.25
2022-09-01T22:07:26.112Z,102172.84
2022-09-01T22:09:57.905Z,102174.84
2022-09-01T22:12:26.768Z,102168.41
2022-09-01T22:14:55.276Z,102178.22
2022-09-01T22:17:25.476Z,102183.84
2022-09-01T22:19:54.071Z,102182.69
2022-09-01T22:22:22.600Z,102182.47
2022-09-01T22:24:51.340Z,102177.91
2022-09-01T22:27:19.993Z,102177.16
2022-09-01T22:29:48.682Z,102184.44
2022-09-01T22:32:17.237Z,102180.63
2022-09-01T22:34:47.384Z,102178.25
2022-09-01T22:37:16.067Z,102185.75
2022-09-01T22:39:44.846Z,102185.59
2022-09-01T22:42:13.411Z,102188.13
2022-09-01T22:44:41.947Z,102185.47
2022-09-01T22:47:10.535Z,102191.84
2022-09-01T22:49:39.301Z,102198.72
2022-09-01T22:52:09.331Z,102184.75
2022-09-01T22:54:37.941Z,102189.31
2022-09-01T22:57:06.531Z,102200.13
2022-09-01T22:59:35.071Z,102197.41
2022-09-01T23:02:04.171Z,102191.97
2022-09-01T23:04:32.793Z,102188.19
2022-09-01T23:07:01.467Z,102192.75
2022-09-01T23:09:32.583Z,102182.31
2022-09-01T23:12:01.223Z,102188.81
2022-09-01T23:14:29.807Z,102184.69
2022-09-01T23:16:59.380Z,102194.06
2022-09-01T23:19:28.047Z,102195.91
2022-09-01T23:21:56.569Z,102191.19
2022-09-01T23:24:25.250Z,102197.16
2022-09-01T23:26:55.278Z,102193.56
2022-09-01T23:29:25.271Z,102192.84
2022-09-01T23:31:53.899Z,102193.00
2022-09-01T23:34:22.465Z,102195.09
2022-09-01T23:36:50.990Z,102192.50
2022-09-01T23:39:19.532Z,102198.94
2022-09-01T23:41:48.118Z,102203.06
2022-09-01T23:44:18.117Z,102205.44
2022-09-01T23:46:47.520Z,102207.34
2022-09-01T23:49:18.251Z,102205.69
2022-09-01T23:51:48.356Z,102196.28
2022-09-01T23:54:17.258Z,102199.09
2022-09-01T23:56:46.047Z,102192.75
2022-09-01T23:59:14.750Z,102200.22
